Ningbo Seal — VRJD3 — position and weather

sailwx.info

Track history (hours):
 
Tides and Currents Weather Stations Pressure Air Temp Water Temp Dewpoint Dewpoint Depression Visibility Wind Speed Wind Dir Waves Ship Positions

Ningbo Seal

Last reported at 2016-Jun-21 05:33 UTC. Time now 2016-Jun-25 19:41 UTC.
Position N 16°07' W 018°05'.

Length 224 m; draft 13.2 m.

Type: Cargo ship. MMSI: 477628100.

Date/timePositionNaut miles runAvg speedWind from/ knotsBaromVisibWave heightAir tempDewpointWater temp
2016-Jun-21 05:33N 16°07' W 018°05'4113.6
2016-Jun-21 02:33N 16°48' W 018°05'1713.7
2016-Jun-21 01:20N 17°05' W 018°06'1013.5
2016-Jun-21 00:33N 17°15' W 018°06'41013.2
2016-Jun-19 17:32N 23°57' W 016°43'19513.7
2016-Jun-19 03:17N 26°38' W 014°40'1013.5
2016-Jun-19 02:33N 26°46' W 014°34'2913.2
2016-Jun-19 00:24N 27°10' W 014°16'1112.7
2016-Jun-18 23:32N 27°19' W 014°10'1313.1
2016-Jun-18 22:34N 27°30' W 014°02'1413.5
2016-Jun-18 21:33N 27°41' W 013°53'1313.5
2016-Jun-18 20:33N 27°52' W 013°44'1413.6
2016-Jun-18 19:32N 28°03' W 013°34'1313.6
2016-Jun-18 18:34N 28°14' W 013°26'1413.7
2016-Jun-18 17:32N 28°25' W 013°16'1413.9
2016-Jun-18 16:33N 28°36' W 013°08'1413.7
2016-Jun-18 15:32N 28°48' W 012°59'1513.5
2016-Jun-18 14:24N 29°00' W 012°49'1713.3
2016-Jun-18 13:08N 29°14' W 012°38'813.0
2016-Jun-18 12:33N 29°20' W 012°33'53013.1
2016-Jun-16 20:04N 35°58' W 005°37'611.2
2016-Jun-16 19:33N 35°59' W 005°30'9 9.1
2016-Jun-16 18:34N 36°07' W 005°24'4 2.7
2016-Jun-16 17:13N 36°10' W 005°24'0 0.0
2016-Jun-16 16:31N 36°10' W 005°24'0 0.0
2016-Jun-16 15:31N 36°10' W 005°24'0 0.0
2016-Jun-16 13:28N 36°10' W 005°24'0 0.0
2016-Jun-16 12:04N 36°10' W 005°24'0 0.0
2016-Jun-16 11:25N 36°10' W 005°24'0 0.0
2016-Jun-16 07:31N 36°10' W 005°24'0 0.0
2016-Jun-16 06:31N 36°10' W 005°24'0 0.0
2016-Jun-16 05:25N 36°10' W 005°24'0 0.0
2016-Jun-16 04:31N 36°10' W 005°24'0 0.1
2016-Jun-16 03:22N 36°10' W 005°24'0 0.1
2016-Jun-16 02:31N 36°10' W 005°24'0 0.1
2016-Jun-16 01:31N 36°10' W 005°24'0 0.0
2016-Jun-15 23:28N 36°10' W 005°24'0 0.0
2016-Jun-15 22:28N 36°10' W 005°24'0 0.1
2016-Jun-15 21:25N 36°10' W 005°24'1 1.1
2016-Jun-15 20:33N 36°09' W 005°24'6 5.8
2016-Jun-15 19:33N 36°04' W 005°22'2 2.0
2016-Jun-15 18:33N 36°03' W 005°19'0 0.5
2016-Jun-15 17:33N 36°03' W 005°19'0 0.4
2016-Jun-15 16:33N 36°04' W 005°19'16811.2
2016-Jun-15 01:31N 36°31' W 001°52'1212.6
2016-Jun-15 00:33N 36°33' W 001°38'1312.7
2016-Jun-14 23:33N 36°35' W 001°22'1212.5
2016-Jun-14 22:33N 36°37' W 001°07'1212.3
2016-Jun-14 21:33N 36°39' W 000°52'1212.0
2016-Jun-14 20:33N 36°41' W 000°37'1212.4
2016-Jun-14 19:33N 36°44' W 000°22'1312.9
2016-Jun-14 18:33N 36°46' W 000°06'1313.2
2016-Jun-14 17:33N 36°49' E 000°11'1613.0
2016-Jun-14 16:19N 36°51' E 000°30'1013.1
2016-Jun-14 15:33N 36°53' E 000°43'1313.0
2016-Jun-14 14:33N 36°56' E 000°58'16912.8
2016-Jun-14 01:18N 37°25' E 004°27'1013.4
2016-Jun-14 00:33N 37°27' E 004°40'1313.1
2016-Jun-13 23:33N 37°29' E 004°56'5112.8
2016-Jun-13 19:32N 37°32' E 006°01'30712.2
2016-Jun-12 18:23N 36°57' E 012°23'1012.1
2016-Jun-12 17:33N 36°52' E 012°34'1212.1
2016-Jun-12 16:33N 36°47' E 012°48'1412.5
2016-Jun-12 15:27N 36°41' E 013°03'1112.8
2016-Jun-12 14:33N 36°35' E 013°16'1312.9
2016-Jun-12 13:33N 36°29' E 013°30'1313.1
2016-Jun-12 12:33N 36°23' E 013°44'1313.0
2016-Jun-12 11:33N 36°17' E 013°59'1313.4
2016-Jun-12 10:33N 36°11' E 014°13'1313.4
2016-Jun-12 09:33N 36°04' E 014°27'1313.1
2016-Jun-12 08:33N 35°56' E 014°41'6 5.9
2016-Jun-12 07:33N 35°53' E 014°47'0 0.1
2016-Jun-12 06:32N 35°53' E 014°47'0 0.1
2016-Jun-12 04:32N 35°53' E 014°47'0 0.2
2016-Jun-12 03:32N 35°53' E 014°47'0 0.1
2016-Jun-12 02:32N 35°53' E 014°47'0 0.0
2016-Jun-12 01:32N 35°53' E 014°47'0 0.0
2016-Jun-12 00:32N 35°53' E 014°47'0 0.0
2016-Jun-11 23:32N 35°53' E 014°47'0 0.1
2016-Jun-11 22:29N 35°53' E 014°47'0 0.1
2016-Jun-11 21:32N 35°53' E 014°47'0 0.1
2016-Jun-11 20:32N 35°53' E 014°47'2 2.5
2016-Jun-11 19:33N 35°56' E 014°47'8 7.8
2016-Jun-11 18:33N 36°04' E 014°47'1312.6
2016-Jun-11 17:33N 36°16' E 014°52'1313.0
2016-Jun-11 16:33N 36°23' E 015°06'1413.0
2016-Jun-11 15:27N 36°32' E 015°20'2513.0
2016-Jun-11 13:33N 36°51' E 015°40'1312.6
2016-Jun-11 12:33N 37°00' E 015°49'1312.8
2016-Jun-11 11:33N 37°10' E 015°60'1312.9
2016-Jun-11 10:31N 37°20' E 016°11'1313.2
2016-Jun-11 09:33N 37°30' E 016°21'  
Track history (hours):
 
Tides and Currents Weather Stations Pressure Air Temp Water Temp Dewpoint Dewpoint Depression Visibility Wind Speed Wind Dir Waves Ship Positions

Ningbo Seal

Last reported at 2016-Jun-21 05:33 UTC. Time now 2016-Jun-25 19:41 UTC.
Position N 16°07' W 018°05'.

Length 224 m; draft 13.2 m.

Type: Cargo ship. MMSI: 477628100.

Date/timePositionNaut miles runAvg speedWind from/ knotsBaromVisibWave heightAir tempDewpointWater temp
2016-Jun-21 05:33N 16°07' W 018°05'4113.6
2016-Jun-21 02:33N 16°48' W 018°05'1713.7
2016-Jun-21 01:20N 17°05' W 018°06'1013.5
2016-Jun-21 00:33N 17°15' W 018°06'41013.2
2016-Jun-19 17:32N 23°57' W 016°43'19513.7
2016-Jun-19 03:17N 26°38' W 014°40'1013.5
2016-Jun-19 02:33N 26°46' W 014°34'2913.2
2016-Jun-19 00:24N 27°10' W 014°16'1112.7
2016-Jun-18 23:32N 27°19' W 014°10'1313.1
2016-Jun-18 22:34N 27°30' W 014°02'1413.5
2016-Jun-18 21:33N 27°41' W 013°53'1313.5
2016-Jun-18 20:33N 27°52' W 013°44'1413.6
2016-Jun-18 19:32N 28°03' W 013°34'1313.6
2016-Jun-18 18:34N 28°14' W 013°26'1413.7
2016-Jun-18 17:32N 28°25' W 013°16'1413.9
2016-Jun-18 16:33N 28°36' W 013°08'1413.7
2016-Jun-18 15:32N 28°48' W 012°59'1513.5
2016-Jun-18 14:24N 29°00' W 012°49'1713.3
2016-Jun-18 13:08N 29°14' W 012°38'813.0
2016-Jun-18 12:33N 29°20' W 012°33'53013.1
2016-Jun-16 20:04N 35°58' W 005°37'611.2
2016-Jun-16 19:33N 35°59' W 005°30'9 9.1
2016-Jun-16 18:34N 36°07' W 005°24'4 2.7
2016-Jun-16 17:13N 36°10' W 005°24'0 0.0
2016-Jun-16 16:31N 36°10' W 005°24'0 0.0
2016-Jun-16 15:31N 36°10' W 005°24'0 0.0
2016-Jun-16 13:28N 36°10' W 005°24'0 0.0
2016-Jun-16 12:04N 36°10' W 005°24'0 0.0
2016-Jun-16 11:25N 36°10' W 005°24'0 0.0
2016-Jun-16 07:31N 36°10' W 005°24'0 0.0
2016-Jun-16 06:31N 36°10' W 005°24'0 0.0
2016-Jun-16 05:25N 36°10' W 005°24'0 0.0
2016-Jun-16 04:31N 36°10' W 005°24'0 0.1
2016-Jun-16 03:22N 36°10' W 005°24'0 0.1
2016-Jun-16 02:31N 36°10' W 005°24'0 0.1
2016-Jun-16 01:31N 36°10' W 005°24'0 0.0
2016-Jun-15 23:28N 36°10' W 005°24'0 0.0
2016-Jun-15 22:28N 36°10' W 005°24'0 0.1
2016-Jun-15 21:25N 36°10' W 005°24'1 1.1
2016-Jun-15 20:33N 36°09' W 005°24'6 5.8
2016-Jun-15 19:33N 36°04' W 005°22'2 2.0
2016-Jun-15 18:33N 36°03' W 005°19'0 0.5
2016-Jun-15 17:33N 36°03' W 005°19'0 0.4
2016-Jun-15 16:33N 36°04' W 005°19'16811.2
2016-Jun-15 01:31N 36°31' W 001°52'1212.6
2016-Jun-15 00:33N 36°33' W 001°38'1312.7
2016-Jun-14 23:33N 36°35' W 001°22'1212.5
2016-Jun-14 22:33N 36°37' W 001°07'1212.3
2016-Jun-14 21:33N 36°39' W 000°52'1212.0
2016-Jun-14 20:33N 36°41' W 000°37'1212.4
2016-Jun-14 19:33N 36°44' W 000°22'1312.9
2016-Jun-14 18:33N 36°46' W 000°06'1313.2
2016-Jun-14 17:33N 36°49' E 000°11'1613.0
2016-Jun-14 16:19N 36°51' E 000°30'1013.1
2016-Jun-14 15:33N 36°53' E 000°43'1313.0
2016-Jun-14 14:33N 36°56' E 000°58'16912.8
2016-Jun-14 01:18N 37°25' E 004°27'1013.4
2016-Jun-14 00:33N 37°27' E 004°40'1313.1
2016-Jun-13 23:33N 37°29' E 004°56'5112.8
2016-Jun-13 19:32N 37°32' E 006°01'30712.2
2016-Jun-12 18:23N 36°57' E 012°23'1012.1
2016-Jun-12 17:33N 36°52' E 012°34'1212.1
2016-Jun-12 16:33N 36°47' E 012°48'1412.5
2016-Jun-12 15:27N 36°41' E 013°03'1112.8
2016-Jun-12 14:33N 36°35' E 013°16'1312.9
2016-Jun-12 13:33N 36°29' E 013°30'1313.1
2016-Jun-12 12:33N 36°23' E 013°44'1313.0
2016-Jun-12 11:33N 36°17' E 013°59'1313.4
2016-Jun-12 10:33N 36°11' E 014°13'1313.4
2016-Jun-12 09:33N 36°04' E 014°27'1313.1
2016-Jun-12 08:33N 35°56' E 014°41'6 5.9
2016-Jun-12 07:33N 35°53' E 014°47'0 0.1
2016-Jun-12 06:32N 35°53' E 014°47'0 0.1
2016-Jun-12 04:32N 35°53' E 014°47'0 0.2
2016-Jun-12 03:32N 35°53' E 014°47'0 0.1
2016-Jun-12 02:32N 35°53' E 014°47'0 0.0
2016-Jun-12 01:32N 35°53' E 014°47'0 0.0
2016-Jun-12 00:32N 35°53' E 014°47'0 0.0
2016-Jun-11 23:32N 35°53' E 014°47'0 0.1
2016-Jun-11 22:29N 35°53' E 014°47'0 0.1
2016-Jun-11 21:32N 35°53' E 014°47'0 0.1
2016-Jun-11 20:32N 35°53' E 014°47'2 2.5
2016-Jun-11 19:33N 35°56' E 014°47'8 7.8
2016-Jun-11 18:33N 36°04' E 014°47'1312.6
2016-Jun-11 17:33N 36°16' E 014°52'1313.0
2016-Jun-11 16:33N 36°23' E 015°06'1413.0
2016-Jun-11 15:27N 36°32' E 015°20'2513.0
2016-Jun-11 13:33N 36°51' E 015°40'1312.6
2016-Jun-11 12:33N 37°00' E 015°49'1312.8
2016-Jun-11 11:33N 37°10' E 015°60'1312.9
2016-Jun-11 10:31N 37°20' E 016°11'1313.2
2016-Jun-11 09:33N 37°30' E 016°21'  

Dump ship's entire track history